createdAt,value
2023-01-25T00:00:15.353Z,1.00
2023-01-25T00:05:17.824Z,1.10
2023-01-25T00:10:20.469Z,1.10
2023-01-25T00:15:24.437Z,1.00
2023-01-25T00:20:27.023Z,1.10
2023-01-25T00:25:29.999Z,1.00
2023-01-25T00:30:35.155Z,1.30
2023-01-25T00:35:38.787Z,1.10
2023-01-25T00:40:41.172Z,1.10
2023-01-25T00:45:43.560Z,1.10
2023-01-25T00:50:46.051Z,1.10
2023-01-25T00:55:52.713Z,1.30
2023-01-25T01:00:56.390Z,1.10
2023-01-25T01:06:01.750Z,1.10
2023-01-25T01:11:06.834Z,1.10
2023-01-25T01:16:13.158Z,1.00
2023-01-25T01:21:15.591Z,1.00
2023-01-25T01:26:22.063Z,1.00
2023-01-25T01:31:24.952Z,1.10
2023-01-25T01:36:39.645Z,1.10
2023-01-25T01:41:42.190Z,1.00
2023-01-25T01:46:57.416Z,1.10
2023-01-25T01:52:12.564Z,1.10
2023-01-25T01:57:20.147Z,1.10
2023-01-25T02:02:26.292Z,1.00
2023-01-25T02:07:36.305Z,1.00
2023-01-25T02:12:39.549Z,1.00
2023-01-25T02:17:43.598Z,1.00
2023-01-25T02:23:08.550Z,1.00
2023-01-25T02:28:17.297Z,1.00
2023-01-25T02:33:22.972Z,1.00
2023-01-25T02:38:25.723Z,1.00
2023-01-25T02:43:32.741Z,1.00
2023-01-25T02:48:37.453Z,1.10
2023-01-25T02:53:41.982Z,1.10
2023-01-25T02:58:45.007Z,1.10
2023-01-25T03:03:47.478Z,1.00
2023-01-25T03:08:50.175Z,1.10
2023-01-25T03:13:52.931Z,1.10
2023-01-25T03:18:56.537Z,1.40
2023-01-25T03:24:01.926Z,1.10
2023-01-25T03:29:11.483Z,1.10
2023-01-25T03:34:17.373Z,1.10
2023-01-25T03:39:19.855Z,1.10
2023-01-25T03:44:22.401Z,1.10
2023-01-25T03:49:25.527Z,1.10
2023-01-25T03:54:28.898Z,1.10
2023-01-25T03:59:31.390Z,1.20
2023-01-25T04:04:35.779Z,1.10
2023-01-25T04:09:39.309Z,1.10
2023-01-25T04:14:44.933Z,1.10
2023-01-25T04:19:54.636Z,1.00
2023-01-25T04:25:02.196Z,1.00
2023-01-25T04:30:05.801Z,1.00
2023-01-25T04:35:11.615Z,1.00
2023-01-25T04:40:14.303Z,1.20
2023-01-25T04:45:21.008Z,1.00
2023-01-25T04:50:23.916Z,0.90
2023-01-25T04:55:26.393Z,0.90
2023-01-25T05:00:33.482Z,0.90
2023-01-25T05:05:37.810Z,0.90
2023-01-25T05:10:46.273Z,0.90
2023-01-25T05:16:06.767Z,0.90
2023-01-25T05:21:30.171Z,1.00
2023-01-25T05:26:51.329Z,0.90
2023-01-25T05:31:55.029Z,0.90
2023-01-25T05:36:58.053Z,1.00
2023-01-25T05:42:00.654Z,1.00
2023-01-25T05:47:06.372Z,0.90
2023-01-25T05:52:14.528Z,0.90
2023-01-25T05:57:18.351Z,0.90
2023-01-25T06:02:21.325Z,1.00
2023-01-25T06:07:24.825Z,1.00
2023-01-25T06:12:29.361Z,1.00
2023-01-25T06:17:33.398Z,1.00
2023-01-25T06:22:58.569Z,1.00
2023-01-25T06:28:01.117Z,1.10
2023-01-25T06:33:03.922Z,1.00
2023-01-25T06:38:06.616Z,1.00
2023-01-25T06:43:10.803Z,1.10
2023-01-25T06:48:13.830Z,1.00
2023-01-25T06:53:16.267Z,1.10
2023-01-25T06:58:18.665Z,1.10
2023-01-25T07:03:21.156Z,1.10
2023-01-25T07:08:23.537Z,1.10
2023-01-25T07:13:27.039Z,1.10
2023-01-25T07:18:30.425Z,1.20
2023-01-25T07:23:34.570Z,1.10
2023-01-25T07:28:36.937Z,1.20
2023-01-25T07:33:39.886Z,1.10
2023-01-25T07:38:42.273Z,1.10
2023-01-25T07:43:44.720Z,1.10
2023-01-25T07:48:51.629Z,1.10
2023-01-25T07:54:02.064Z,1.10
2023-01-25T07:59:04.989Z,1.20
2023-01-25T08:04:07.986Z,1.20
2023-01-25T08:09:20.113Z,1.20
2023-01-25T08:14:22.722Z,1.30
2023-01-25T08:19:26.805Z,1.30
2023-01-25T08:24:29.202Z,1.30
2023-01-25T08:29:31.680Z,1.30
2023-01-25T08:34:37.518Z,1.30
2023-01-25T08:39:39.955Z,1.40
2023-01-25T08:44:42.281Z,2.20
2023-01-25T08:49:44.672Z,1.40
2023-01-25T08:54:47.096Z,1.50
2023-01-25T08:59:49.460Z,1.50
2023-01-25T09:04:51.819Z,1.50
2023-01-25T09:09:54.158Z,1.50
2023-01-25T09:14:56.507Z,1.50
2023-01-25T09:19:58.912Z,1.60
2023-01-25T09:25:01.228Z,1.60
2023-01-25T09:30:10.905Z,1.70
2023-01-25T09:35:17.073Z,1.70
2023-01-25T09:40:22.768Z,1.70
2023-01-25T09:45:34.220Z,1.70
2023-01-25T09:50:36.788Z,1.90
2023-01-25T09:55:40.258Z,1.70
2023-01-25T10:00:48.183Z,1.70
2023-01-25T10:05:54.027Z,1.70
2023-01-25T10:11:21.464Z,1.70
2023-01-25T10:16:44.250Z,1.60
2023-01-25T10:21:54.496Z,1.60
2023-01-25T10:27:02.274Z,1.70
2023-01-25T10:32:25.243Z,1.70
2023-01-25T10:37:31.285Z,1.80
2023-01-25T10:42:41.418Z,1.80
2023-01-25T10:47:51.458Z,1.80
2023-01-25T10:52:59.903Z,1.70
2023-01-25T10:58:02.317Z,1.70
2023-01-25T11:03:05.534Z,1.70
2023-01-25T11:08:32.711Z,1.60
2023-01-25T11:13:35.151Z,1.70
2023-01-25T11:18:37.544Z,1.70
2023-01-25T11:23:40.323Z,1.70
2023-01-25T11:28:44.828Z,2.30
2023-01-25T11:33:47.407Z,1.80
2023-01-25T11:39:29.148Z,1.80
2023-01-25T11:44:56.370Z,1.70
2023-01-25T11:50:21.786Z,1.80
2023-01-25T11:55:37.422Z,1.80
2023-01-25T12:00:43.760Z,1.80
2023-01-25T12:06:17.172Z,1.90
2023-01-25T12:11:40.587Z,2.00
2023-01-25T12:17:19.072Z,2.00
2023-01-25T12:22:27.300Z,2.00
2023-01-25T12:27:49.881Z,2.00
2023-01-25T12:33:08.866Z,2.00
2023-01-25T12:38:38.295Z,1.90
2023-01-25T12:43:48.731Z,2.00
2023-01-25T12:48:56.238Z,1.90
2023-01-25T12:54:00.579Z,1.90
2023-01-25T12:59:23.635Z,1.90
2023-01-25T13:04:53.206Z,2.00
2023-01-25T13:10:03.110Z,2.10
2023-01-25T13:15:35.281Z,2.00
2023-01-25T13:20:40.414Z,2.00
2023-01-25T13:25:42.797Z,2.00
2023-01-25T13:30:53.318Z,2.00
2023-01-25T13:35:55.733Z,1.90
2023-01-25T13:41:12.323Z,2.00
2023-01-25T13:46:18.006Z,2.00
2023-01-25T13:51:21.939Z,2.00
2023-01-25T13:56:30.901Z,1.90
2023-01-25T14:01:35.660Z,1.90
2023-01-25T14:06:40.795Z,1.90
2023-01-25T14:11:55.181Z,1.80
2023-01-25T14:17:16.137Z,1.90
2023-01-25T14:22:30.201Z,1.90
2023-01-25T14:27:34.978Z,1.90
2023-01-25T14:32:37.431Z,2.00
2023-01-25T14:37:42.754Z,2.00
2023-01-25T14:42:45.338Z,2.00
2023-01-25T14:47:58.339Z,1.90
2023-01-25T14:53:21.611Z,2.00
2023-01-25T14:58:25.951Z,1.90
2023-01-25T15:03:31.210Z,1.90
2023-01-25T15:08:39.024Z,1.90
2023-01-25T15:13:41.376Z,1.80
2023-01-25T15:19:01.568Z,1.80
2023-01-25T15:24:11.681Z,1.80
2023-01-25T15:29:15.126Z,1.70
2023-01-25T15:34:25.030Z,1.70
2023-01-25T15:39:28.772Z,1.80
2023-01-25T15:44:31.370Z,1.80
2023-01-25T15:49:37.446Z,1.70
2023-01-25T15:54:42.283Z,1.70
2023-01-25T15:59:48.470Z,1.80
2023-01-25T16:04:59.421Z,1.70
2023-01-25T16:10:02.218Z,1.70
2023-01-25T16:15:05.672Z,2.50
2023-01-25T16:20:15.577Z,1.80
2023-01-25T16:25:30.345Z,1.80
2023-01-25T16:30:34.530Z,1.80
2023-01-25T16:35:37.134Z,1.80
2023-01-25T16:40:39.893Z,1.70
2023-01-25T16:45:42.266Z,1.70
2023-01-25T16:50:44.594Z,1.70
2023-01-25T16:55:48.228Z,1.70
2023-01-25T17:00:51.064Z,1.70
2023-01-25T17:05:53.607Z,1.70
2023-01-25T17:10:57.500Z,1.70
2023-01-25T17:16:00.986Z,1.70
2023-01-25T17:21:06.462Z,1.70
2023-01-25T17:26:12.093Z,1.70
2023-01-25T17:31:16.638Z,1.70
2023-01-25T17:36:19.895Z,1.70
2023-01-25T17:41:22.313Z,1.70
2023-01-25T17:46:29.765Z,1.70
2023-01-25T17:51:34.223Z,1.70
2023-01-25T17:56:39.386Z,1.90
2023-01-25T18:01:45.016Z,1.60
2023-01-25T18:06:47.493Z,1.60
2023-01-25T18:11:49.922Z,1.60
2023-01-25T18:16:52.582Z,1.60
2023-01-25T18:21:54.911Z,1.60
2023-01-25T18:27:03.714Z,1.60
2023-01-25T18:32:06.668Z,1.60
2023-01-25T18:37:17.972Z,1.60
2023-01-25T18:42:21.857Z,1.60
2023-01-25T18:47:24.410Z,1.70
2023-01-25T18:52:27.248Z,1.70
2023-01-25T18:57:29.629Z,1.70
2023-01-25T19:02:32.059Z,1.70
2023-01-25T19:07:34.506Z,1.70
2023-01-25T19:12:36.858Z,1.80
2023-01-25T19:17:39.219Z,1.70
2023-01-25T19:22:42.038Z,1.60
2023-01-25T19:27:44.992Z,1.60
2023-01-25T19:32:47.323Z,1.60
2023-01-25T19:37:49.621Z,1.60
2023-01-25T19:42:51.971Z,1.60
2023-01-25T19:47:54.323Z,1.60
2023-01-25T19:52:56.718Z,1.50
2023-01-25T19:57:59.133Z,1.60
2023-01-25T20:03:14.961Z,1.70
2023-01-25T20:08:18.558Z,1.60
2023-01-25T20:13:20.935Z,1.60
2023-01-25T20:18:23.999Z,1.60
2023-01-25T20:23:27.300Z,1.60
2023-01-25T20:28:29.632Z,1.60
2023-01-25T20:33:33.536Z,1.60
2023-01-25T20:38:37.365Z,1.60
2023-01-25T20:43:40.643Z,1.60
2023-01-25T20:48:43.345Z,1.60
2023-01-25T20:53:46.510Z,1.60
2023-01-25T20:58:52.937Z,2.10
2023-01-25T21:03:56.952Z,1.60
2023-01-25T21:08:59.393Z,1.70
2023-01-25T21:14:01.813Z,1.70
2023-01-25T21:19:06.472Z,1.70
2023-01-25T21:24:09.586Z,1.70
2023-01-25T21:29:11.994Z,1.70
2023-01-25T21:34:14.462Z,1.70
2023-01-25T21:39:16.810Z,1.70
2023-01-25T21:44:37.694Z,1.70
2023-01-25T21:49:58.954Z,1.70
2023-01-25T21:55:01.531Z,1.70
2023-01-25T22:00:05.480Z,1.70
2023-01-25T22:05:08.105Z,1.70
2023-01-25T22:10:11.281Z,1.60
2023-01-25T22:15:13.812Z,1.70
2023-01-25T22:20:16.505Z,1.70
2023-01-25T22:25:18.914Z,1.70
2023-01-25T22:30:21.247Z,1.60
2023-01-25T22:35:23.651Z,1.70
2023-01-25T22:40:26.053Z,1.70
2023-01-25T22:45:28.404Z,1.70
2023-01-25T22:50:31.327Z,1.70
2023-01-25T22:55:33.649Z,1.70
2023-01-25T23:00:37.631Z,1.70
2023-01-25T23:05:39.923Z,1.70
2023-01-25T23:10:42.211Z,1.70
2023-01-25T23:15:44.569Z,1.60
2023-01-25T23:20:46.928Z,1.60
2023-01-25T23:25:49.371Z,1.60
2023-01-25T23:30:51.717Z,1.60
2023-01-25T23:35:54.167Z,1.60
2023-01-25T23:41:01.312Z,1.60
2023-01-25T23:46:03.893Z,1.60
2023-01-25T23:51:06.545Z,1.60
2023-01-25T23:56:13.925Z,1.50
